Time;durP1;ratioP1;P1;durP2;ratioP2;P2;SDS_P1;SDS_P2;PMS_P1;PMS_P2;Temp;Humidity;BMP_temperature;BMP_pressure;BME280_temperature;BME280_humidity;BME280_pressure;Samples;Min_cycle;Max_cycle;Signal;HPM_P1;HPM_P2
2022/05/03 00:00:22;;;;;;;8.63;5.33;;;;;;;10.90;83.28;96044.06;5076459;28;20211;-69
2022/05/03 00:02:55;;;;;;;10.77;5.60;;;;;;;11.18;84.55;96048.47;5077057;28;20195;-69
2022/05/03 00:05:30;;;;;;;11.67;6.33;;;;;;;11.17;85.68;96052.09;5074428;28;20199;-68
2022/05/03 00:08:05;;;;;;;16.70;6.80;;;;;;;11.25;84.50;96049.38;5077196;28;21070;-68
2022/05/03 00:10:45;;;;;;;11.10;6.00;;;;;;;11.37;81.12;96039.16;5077047;28;20218;-68
2022/05/03 00:13:17;;;;;;;17.67;5.83;;;;;;;11.38;81.85;96046.03;5077024;28;20203;-69
2022/05/03 00:15:44;;;;;;;10.90;6.17;;;;;;;11.25;81.82;96044.09;5077476;28;20204;-69
2022/05/03 00:18:12;;;;;;;10.70;6.03;;;;;;;11.22;81.77;96039.19;5077310;28;20215;-69
2022/05/03 00:20:40;;;;;;;10.53;5.63;;;;;;;10.52;83.95;96033.81;5077192;28;20243;-69
2022/05/03 00:23:08;;;;;;;8.23;4.63;;;;;;;10.77;81.18;96035.16;5076198;28;20212;-68
2022/05/03 00:25:35;;;;;;;12.00;6.37;;;;;;;10.63;85.63;96030.72;5076821;28;20211;-68
2022/05/03 00:28:02;;;;;;;13.33;6.53;;;;;;;10.52;85.40;96024.06;5077162;28;20204;-69
2022/05/03 00:30:29;;;;;;;13.17;6.80;;;;;;;10.55;86.36;96023.72;5077252;28;20220;-68
2022/05/03 00:32:57;;;;;;;16.10;6.57;;;;;;;10.70;84.02;96023.72;5076408;28;20200;-69
2022/05/03 00:35:24;;;;;;;13.57;6.67;;;;;;;10.91;83.67;96029.06;5076681;28;21409;-68
2022/05/03 00:37:51;;;;;;;13.47;7.20;;;;;;;10.60;84.31;96023.16;5076741;28;20227;-68
2022/05/03 00:40:21;;;;;;;11.27;5.87;;;;;;;10.75;83.33;96022.16;5076380;28;20231;-69
2022/05/03 00:42:55;;;;;;;12.87;6.77;;;;;;;10.79;84.34;96017.34;5076292;28;20204;-69
2022/05/03 00:45:29;;;;;;;10.93;5.90;;;;;;;10.44;83.21;96016.28;5076768;28;20199;-68
2022/05/03 00:48:03;;;;;;;10.93;6.10;;;;;;;10.58;83.93;96017.28;5077100;28;20198;-68
2022/05/03 00:50:34;;;;;;;12.23;6.73;;;;;;;10.70;84.17;96010.53;5076444;28;20229;-69
2022/05/03 00:53:09;;;;;;;12.60;7.07;;;;;;;10.64;86.79;96013.91;5077154;28;20523;-68
2022/05/03 00:56:14;;;;;;;13.10;6.93;;;;;;;10.50;85.37;96009.44;5081076;28;20743;-68
2022/05/03 00:58:55;;;;;;;12.33;6.67;;;;;;;10.29;84.76;96022.53;5018390;28;20725;-71
2022/05/03 01:01:31;;;;;;;15.50;7.17;;;;;;;10.42;85.59;96013.03;5075882;28;20202;-71
2022/05/03 01:04:10;;;;;;;15.93;7.20;;;;;;;10.37;85.91;96019.81;5077147;28;20207;-71
2022/05/03 01:06:52;;;;;;;16.87;7.60;;;;;;;10.36;86.60;96012.91;5080957;28;20200;-71
2022/05/03 01:09:26;;;;;;;11.17;6.00;;;;;;;10.28;83.61;96015.63;5081085;28;20215;-71
2022/05/03 01:12:05;;;;;;;13.27;6.23;;;;;;;10.44;82.29;96011.00;5080445;28;20203;-71
2022/05/03 01:14:48;;;;;;;16.77;7.37;;;;;;;10.38;83.81;96013.53;5079837;28;20316;-71
2022/05/03 01:17:21;;;;;;;11.20;6.40;;;;;;;10.30;83.38;96018.06;5080511;28;20211;-70
2022/05/03 01:20:03;;;;;;;15.73;6.37;;;;;;;10.09;80.81;96016.13;5079996;28;20232;-70
2022/05/03 01:22:56;;;;;;;12.07;6.00;;;;;;;10.27;81.27;96016.63;5079458;28;20230;-70
2022/05/03 01:25:48;;;;;;;11.53;6.53;;;;;;;10.34;81.91;96014.91;5080399;28;20963;-70
2022/05/03 01:28:25;;;;;;;13.57;6.87;;;;;;;10.26;83.12;96014.16;5078013;28;20199;-71
2022/05/03 01:30:57;;;;;;;12.70;6.33;;;;;;;9.87;83.45;96014.34;5080395;28;20227;-71
2022/05/03 01:33:31;;;;;;;13.90;6.83;;;;;;;9.97;82.87;96017.56;5079169;28;20200;-70
2022/05/03 01:36:00;;;;;;;14.17;6.87;;;;;;;9.90;84.77;96019.28;5080067;28;20215;-70
2022/05/03 01:38:35;;;;;;;15.20;8.20;;;;;;;9.79;89.52;96024.13;5079934;28;20255;-70
2022/05/03 01:41:27;;;;;;;15.53;7.90;;;;;;;10.17;87.14;96023.16;5080490;28;20227;-71
2022/05/03 01:44:09;;;;;;;12.90;7.30;;;;;;;10.02;86.78;96014.44;5078658;28;20660;-70
2022/05/03 01:46:37;;;;;;;16.13;7.83;;;;;;;10.05;86.79;96020.13;5080021;28;20204;-70
2022/05/03 01:52:22;;;;;;;15.30;6.90;;;;;;;10.18;83.67;96022.97;5079746;28;20249;-71
2022/05/03 01:55:12;;;;;;;13.37;7.00;;;;;;;10.16;82.04;96024.97;5075542;28;20200;-70
2022/05/03 01:57:54;;;;;;;9.47;5.97;;;;;;;9.87;82.35;96022.22;5079556;28;20207;-70
2022/05/03 02:00:22;;;;;;;11.60;6.40;;;;;;;9.76;82.76;96021.84;5079036;28;20220;-70
2022/05/03 02:02:57;;;;;;;12.00;6.37;;;;;;;9.90;83.45;96015.81;5079176;28;20416;-70
2022/05/03 02:05:45;;;;;;;11.23;6.00;;;;;;;9.49;85.41;96018.94;5074545;28;20207;-70
2022/05/03 02:08:15;;;;;;;10.83;6.07;;;;;;;9.37;87.07;96023.78;5080062;28;20200;-70
2022/05/03 02:10:54;;;;;;;10.33;6.10;;;;;;;9.52;84.82;96013.31;5079982;28;20227;-71
2022/05/03 02:14:44;;;;;;;15.10;5.87;;;;;;;9.42;84.24;96020.63;5079141;28;20199;-71
2022/05/03 02:16:29;;;;;;;12.23;5.87;;;;;;;9.63;85.56;96018.19;5078507;28;20227;-70
2022/05/03 02:19:08;;;;;;;12.57;6.47;;;;;;;9.79;84.52;96019.69;5079754;28;20223;-70
2022/05/03 02:21:50;;;;;;;11.93;6.97;;;;;;;9.84;83.26;96017.34;5079020;28;20257;-70
2022/05/03 02:24:27;;;;;;;11.00;6.23;;;;;;;9.77;83.20;96021.66;5078140;28;20204;-70
2022/05/03 02:26:59;;;;;;;12.53;6.50;;;;;;;9.81;83.66;96017.69;5079930;28;20200;-70
2022/05/03 02:29:47;;;;;;;13.13;6.33;;;;;;;9.74;83.59;96016.75;5079189;28;20224;-70
2022/05/03 02:32:21;;;;;;;11.57;6.53;;;;;;;9.70;82.22;96015.47;5078032;28;20215;-71
2022/05/03 02:34:54;;;;;;;10.60;5.87;;;;;;;9.76;82.81;96021.84;5079284;28;20202;-70
2022/05/03 02:37:24;;;;;;;13.90;7.43;;;;;;;9.73;85.68;96019.56;5079057;28;20571;-70
2022/05/03 02:39:53;;;;;;;12.03;6.67;;;;;;;9.63;86.94;96020.81;5079092;28;20223;-70
2022/05/03 02:42:21;;;;;;;13.93;7.63;;;;;;;9.78;86.28;96018.03;5078377;28;20253;-70
2022/05/03 02:44:48;;;;;;;11.47;6.50;;;;;;;9.47;85.30;96021.75;5079021;28;20569;-70
2022/05/03 02:47:28;;;;;;;11.17;6.70;;;;;;;9.34;85.13;96023.31;5078592;28;20200;-71
2022/05/03 02:50:06;;;;;;;10.83;6.10;;;;;;;9.44;83.42;96023.91;5078857;28;20597;-71
2022/05/03 02:52:43;;;;;;;11.87;6.17;;;;;;;9.55;81.53;96019.06;5078070;28;20825;-71
2022/05/03 02:55:19;;;;;;;13.67;7.03;;;;;;;9.64;82.21;96015.38;5078415;28;20199;-70
2022/05/03 02:57:53;;;;;;;10.20;6.10;;;;;;;9.59;82.00;96017.72;5078570;28;20211;-70
2022/05/03 03:03:26;;;;;;;13.13;7.10;;;;;;;9.68;84.76;96014.03;5077560;28;20215;-70
2022/05/03 03:05:59;;;;;;;13.23;7.20;;;;;;;9.46;84.94;96021.94;5076060;28;20280;-70
2022/05/03 03:08:29;;;;;;;10.70;5.57;;;;;;;9.12;83.64;96013.59;5077939;28;21080;-71
2022/05/03 03:11:02;;;;;;;10.40;5.57;;;;;;;9.39;80.94;96018.34;5077997;28;20352;-70
2022/05/03 03:13:43;;;;;;;11.13;6.37;;;;;;;9.56;81.57;96012.81;5077935;28;20764;-70
2022/05/03 03:16:14;;;;;;;17.20;6.77;;;;;;;9.61;82.45;96009.63;5077852;28;20207;-70
2022/05/03 03:18:43;;;;;;;12.50;6.47;;;;;;;9.49;82.61;96005.78;5078418;28;20238;-71
2022/05/03 03:21:13;;;;;;;10.20;5.70;;;;;;;9.32;81.98;96009.53;5078856;28;20795;-71
2022/05/03 03:23:40;;;;;;;10.60;5.77;;;;;;;9.34;81.41;96003.13;5077321;28;20231;-70
2022/05/03 03:26:09;;;;;;;11.13;6.23;;;;;;;9.19;83.98;96009.31;5078190;28;20200;-71
2022/05/03 03:28:37;;;;;;;13.10;6.53;;;;;;;9.15;83.77;96014.06;5078458;28;20200;-70
2022/05/03 03:31:05;;;;;;;15.17;7.13;;;;;;;9.02;84.63;96017.44;5078304;28;20224;-71
2022/05/03 03:33:34;;;;;;;10.53;6.17;;;;;;;8.92;85.35;96019.47;5076843;28;20257;-70
2022/05/03 03:36:03;;;;;;;9.70;5.97;;;;;;;9.06;81.61;96011.66;5077870;28;20219;-70
2022/05/03 03:38:40;;;;;;;11.07;6.10;;;;;;;9.25;81.85;96013.84;5077244;28;20364;-70
2022/05/03 03:41:08;;;;;;;11.57;6.40;;;;;;;9.04;82.61;96011.03;5077910;28;20227;-70
2022/05/03 03:43:34;;;;;;;12.10;6.40;;;;;;;8.83;83.82;96016.03;5076907;28;20668;-70
2022/05/03 03:46:01;;;;;;;10.37;5.70;;;;;;;9.00;82.69;96019.41;5077221;28;20208;-70
2022/05/03 03:48:28;;;;;;;10.50;6.33;;;;;;;8.87;83.81;96016.53;5077372;28;20204;-70
2022/05/03 03:50:56;;;;;;;12.60;7.00;;;;;;;8.98;83.86;96010.91;5077992;28;20224;-70
2022/05/03 03:53:23;;;;;;;9.93;5.60;;;;;;;8.58;81.60;96018.97;5076685;28;20211;-70
2022/05/03 03:55:53;;;;;;;12.30;5.90;;;;;;;9.01;80.95;96016.59;5077411;28;20204;-69
2022/05/03 03:58:20;;;;;;;10.00;5.93;;;;;;;8.96;82.23;96018.97;5077557;28;20228;-70
2022/05/03 04:00:47;;;;;;;14.53;5.90;;;;;;;8.98;83.82;96019.59;5077838;28;20223;-70
2022/05/03 04:03:15;;;;;;;10.30;6.20;;;;;;;9.04;83.68;96016.28;5076242;28;20287;-70
2022/05/03 04:05:42;;;;;;;10.87;6.40;;;;;;;8.93;84.33;96023.72;5074999;28;20195;-70
2022/05/03 04:08:08;;;;;;;10.27;5.80;;;;;;;8.70;84.31;96021.03;5077677;28;20280;-71
2022/05/03 04:10:35;;;;;;;12.57;6.80;;;;;;;8.74;83.99;96019.69;5077337;28;20223;-70
2022/05/03 04:13:04;;;;;;;11.53;6.33;;;;;;;8.89;81.91;96015.38;5076490;28;20204;-70
2022/05/03 04:15:32;;;;;;;12.50;7.10;;;;;;;8.81;82.08;96025.94;5078007;28;20290;-70
2022/05/03 04:18:00;;;;;;;11.73;6.63;;;;;;;8.72;83.62;96026.16;5076823;28;20211;-70
2022/05/03 04:20:26;;;;;;;14.40;7.60;;;;;;;8.58;85.24;96019.78;5076975;28;20230;-70
2022/05/03 04:22:52;;;;;;;12.27;6.80;;;;;;;8.27;83.85;96020.69;5076281;28;20546;-69
2022/05/03 04:25:19;;;;;;;12.70;6.80;;;;;;;8.27;83.05;96023.31;5076649;28;20203;-70
2022/05/03 04:27:45;;;;;;;13.07;6.33;;;;;;;8.58;82.68;96025.03;5075110;28;20203;-70
2022/05/03 04:30:14;;;;;;;14.60;7.80;;;;;;;8.99;84.43;96025.69;5076870;28;20219;-70
2022/05/03 04:32:40;;;;;;;16.47;7.67;;;;;;;8.92;84.69;96032.59;5075414;28;20672;-70
2022/05/03 04:35:08;;;;;;;15.50;7.57;;;;;;;9.11;84.93;96031.19;5076066;28;20204;-70
2022/05/03 04:37:34;;;;;;;12.87;7.70;;;;;;;9.19;83.94;96035.59;5076523;28;20207;-70
2022/05/03 04:40:01;;;;;;;14.50;7.70;;;;;;;9.20;82.46;96038.03;5076626;28;20227;-70
2022/05/03 04:42:27;;;;;;;12.80;7.27;;;;;;;9.27;84.24;96035.53;5075478;28;20567;-70
2022/05/03 04:44:54;;;;;;;16.87;8.73;;;;;;;9.37;84.60;96039.56;5076266;28;20199;-70
2022/05/03 04:47:22;;;;;;;20.90;8.93;;;;;;;9.43;85.47;96044.16;5076643;28;20211;-71
2022/05/03 04:49:48;;;;;;;15.33;7.47;;;;;;;8.97;86.26;96043.41;5075520;28;20595;-70
2022/05/03 04:52:15;;;;;;;15.30;7.50;;;;;;;9.08;84.77;96051.75;5076048;28;20211;-69
2022/05/03 04:54:42;;;;;;;15.17;7.70;;;;;;;9.18;85.60;96054.97;5075744;28;20210;-69
2022/05/03 04:57:09;;;;;;;11.47;6.27;;;;;;;9.01;86.22;96049.97;5076143;28;20745;-69
2022/05/03 04:59:37;;;;;;;14.03;7.30;;;;;;;9.16;87.24;96047.28;5075976;28;20443;-69
2022/05/03 05:02:04;;;;;;;12.47;7.10;;;;;;;9.44;85.58;96050.22;5076436;28;20221;-69
2022/05/03 05:04:31;;;;;;;14.73;7.37;;;;;;;9.45;86.78;96049.22;5073154;28;20204;-69
2022/05/03 05:06:58;;;;;;;15.67;8.37;;;;;;;9.41;87.52;96051.38;5076749;28;20677;-70
2022/05/03 05:09:24;;;;;;;16.33;8.10;;;;;;;9.27;89.81;96049.47;5076247;28;20223;-69
2022/05/03 05:11:51;;;;;;;21.37;9.97;;;;;;;9.80;88.16;96052.91;5075842;28;20482;-69
2022/05/03 05:14:20;;;;;;;19.40;9.57;;;;;;;9.73;89.11;96051.94;5074820;28;20299;-70
2022/05/03 05:16:47;;;;;;;17.37;9.20;;;;;;;9.98;88.02;96050.81;5075678;28;20196;-70
2022/05/03 05:19:14;;;;;;;20.43;9.70;;;;;;;10.05;88.68;96051.72;5076136;28;20747;-69
2022/05/03 05:21:41;;;;;;;24.43;10.50;;;;;;;10.27;88.90;96056.13;5075871;28;20613;-69
2022/05/03 05:24:10;;;;;;;20.30;10.13;;;;;;;10.38;88.13;96058.31;5075205;28;20242;-70
2022/05/03 05:26:36;;;;;;;22.23;11.10;;;;;;;10.60;87.75;96053.00;5075953;28;20478;-70
2022/05/03 05:29:03;;;;;;;23.93;11.47;;;;;;;10.73;87.29;96060.25;5075580;28;20672;-70
2022/05/03 05:31:29;;;;;;;21.83;11.50;;;;;;;10.78;87.34;96071.91;5076018;28;20204;-70
2022/05/03 05:33:56;;;;;;;24.57;12.13;;;;;;;10.87;88.53;96059.41;5075128;28;20662;-69
2022/05/03 05:36:22;;;;;;;28.67;11.27;;;;;;;10.42;91.24;96070.97;5076658;28;20581;-70
2022/05/03 05:38:50;;;;;;;37.83;15.30;;;;;;;11.10;90.11;96068.88;5076741;28;20638;-70
2022/05/03 05:41:17;;;;;;;41.70;15.23;;;;;;;11.12;90.62;96075.56;5079277;28;20317;-69
2022/05/03 05:43:43;;;;;;;38.83;14.70;;;;;;;11.35;89.87;96072.81;5079684;28;20199;-70
2022/05/03 05:46:10;;;;;;;38.47;15.57;;;;;;;11.45;89.95;96076.78;5079425;28;20687;-69
2022/05/03 05:48:38;;;;;;;36.80;13.93;;;;;;;11.26;92.03;96077.38;5079254;28;20199;-70
2022/05/03 05:51:05;;;;;;;35.73;13.53;;;;;;;11.50;90.12;96079.72;5079663;28;20231;-69
2022/05/03 05:53:33;;;;;;;32.57;13.90;;;;;;;11.54;89.63;96082.81;5079086;28;20204;-69
2022/05/03 05:56:02;;;;;;;30.77;13.00;;;;;;;11.78;89.55;96078.00;5079596;28;20203;-70
2022/05/03 05:58:29;;;;;;;28.53;14.40;;;;;;;11.82;88.96;96087.16;5079794;28;20207;-69
2022/05/03 06:00:56;;;;;;;32.50;14.27;;;;;;;11.72;90.17;96084.84;5079551;28;20247;-70
2022/05/03 06:03:23;;;;;;;30.50;13.37;;;;;;;11.44;91.58;96090.97;5079259;28;20639;-70
2022/05/03 06:05:51;;;;;;;35.27;14.83;;;;;;;11.82;90.48;96097.72;5076455;28;20199;-70
2022/05/03 06:08:17;;;;;;;31.07;13.73;;;;;;;11.83;90.47;96091.44;5079353;28;20201;-70
2022/05/03 06:10:44;;;;;;;30.77;14.03;;;;;;;12.02;89.77;96090.81;5077985;28;20223;-69
2022/05/03 06:13:13;;;;;;;28.63;13.53;;;;;;;12.24;90.16;96094.09;5077369;28;20573;-70
2022/05/03 06:15:40;;;;;;;33.30;15.20;;;;;;;12.36;88.99;96086.47;5078420;28;20200;-70
2022/05/03 06:18:08;;;;;;;35.90;15.20;;;;;;;12.40;89.01;96096.44;5078255;28;20669;-70
2022/05/03 06:20:34;;;;;;;43.93;16.03;;;;;;;12.14;89.71;96092.75;5078314;28;20224;-70
2022/05/03 06:23:00;;;;;;;36.50;16.10;;;;;;;12.20;89.86;96099.91;5077994;28;20481;-70
2022/05/03 06:25:27;;;;;;;38.57;15.80;;;;;;;12.15;91.35;96089.09;5078338;28;20203;-69
2022/05/03 06:27:53;;;;;;;39.47;16.80;;;;;;;12.47;89.78;96086.72;5078077;28;20548;-70
2022/05/03 06:30:21;;;;;;;35.07;16.37;;;;;;;12.72;90.16;96085.28;5078505;28;20216;-70
2022/05/03 06:32:48;;;;;;;33.90;15.50;;;;;;;12.79;89.08;96081.69;5077747;28;20200;-70
2022/05/03 06:35:15;;;;;;;30.47;14.93;;;;;;;12.85;89.13;96080.91;5078549;28;20206;-70
2022/05/03 06:37:42;;;;;;;36.27;15.70;;;;;;;12.91;89.44;96084.63;5078016;28;20890;-70
2022/05/03 06:40:11;;;;;;;38.87;17.13;;;;;;;12.92;89.29;96078.34;5078502;28;20700;-70
2022/05/03 06:42:38;;;;;;;34.70;15.80;;;;;;;13.05;88.94;96089.78;5077516;28;20587;-70
2022/05/03 06:45:06;;;;;;;39.23;16.77;;;;;;;13.11;89.67;96085.53;5078949;28;20208;-70
2022/05/03 06:47:34;;;;;;;34.67;15.57;;;;;;;13.09;89.80;96087.56;5079126;28;20584;-70
2022/05/03 06:50:01;;;;;;;38.73;15.83;;;;;;;13.12;89.61;96092.47;5078447;28;20238;-70
2022/05/03 06:52:28;;;;;;;35.73;15.93;;;;;;;13.14;89.88;96091.25;5076629;28;20477;-70
2022/05/03 06:54:54;;;;;;;38.60;17.97;;;;;;;13.34;88.61;96094.00;5079216;28;20200;-70
2022/05/03 06:57:21;;;;;;;37.20;17.53;;;;;;;13.63;87.91;96094.50;5077946;28;20200;-70
2022/05/03 06:59:47;;;;;;;32.47;15.90;;;;;;;13.68;88.21;96092.94;5078454;28;20224;-70
2022/05/03 07:02:14;;;;;;;33.43;16.40;;;;;;;13.27;89.20;96103.75;5076843;28;20579;-70
2022/05/03 07:04:43;;;;;;;29.45;14.63;;;;;;;13.71;87.41;96100.47;5077300;28;20203;-70
2022/05/03 07:07:10;;;;;;;32.28;15.38;;;;;;;13.88;86.34;96106.22;5077405;28;20214;-70
2022/05/03 07:09:37;;;;;;;32.47;15.52;;;;;;;14.15;85.64;96098.97;5077781;28;20247;-70
2022/05/03 07:12:04;;;;;;;32.07;15.43;;;;;;;14.31;84.89;96095.91;5075465;28;20235;-70
2022/05/03 07:14:31;;;;;;;31.95;15.95;;;;;;;14.23;84.87;96105.88;5076130;28;20196;-70
2022/05/03 07:16:57;;;;;;;43.80;15.77;;;;;;;14.36;84.24;96103.28;5078186;28;20215;-70
2022/05/03 07:24:53;;;;;;;27.42;13.77;;;;;;;14.84;82.27;96103.66;5076349;28;20223;-70
2022/05/03 07:27:19;;;;;;;29.83;13.65;;;;;;;15.08;81.46;96100.31;5076741;28;20204;-70
2022/05/03 07:29:46;;;;;;;29.35;14.50;;;;;;;14.63;82.72;96103.84;5076624;28;20216;-70
2022/05/03 07:32:12;;;;;;;30.10;15.10;;;;;;;14.72;83.74;96102.63;5077567;28;20196;-70
2022/05/03 07:34:39;;;;;;;29.88;14.45;;;;;;;15.03;82.56;96094.03;5077799;28;20199;-70
2022/05/03 07:37:05;;;;;;;36.45;15.07;;;;;;;15.27;82.33;96097.69;5075502;28;20902;-70
2022/05/03 07:39:33;;;;;;;29.60;14.52;;;;;;;15.59;81.58;96104.72;5077537;28;20280;-70
2022/05/03 07:42:00;;;;;;;29.95;14.48;;;;;;;15.54;80.88;96104.53;5078649;28;20867;-70
2022/05/03 07:44:27;;;;;;;29.17;14.88;;;;;;;15.72;79.49;96101.16;5076750;28;20203;-70
2022/05/03 07:46:53;;;;;;;28.63;13.68;;;;;;;15.74;78.02;96102.59;5077986;28;20211;-68
2022/05/03 07:49:20;;;;;;;24.90;13.48;;;;;;;15.82;78.50;96098.88;5077790;28;20227;-69
2022/05/03 07:51:46;;;;;;;25.08;13.70;;;;;;;15.85;77.81;96102.72;5077439;28;20668;-69
2022/05/03 07:54:12;;;;;;;23.40;13.00;;;;;;;16.01;77.47;96106.72;5076299;28;20207;-68
2022/05/03 07:56:40;;;;;;;20.73;12.70;;;;;;;16.31;77.64;96113.94;5078945;28;20218;-68
2022/05/03 07:59:09;;;;;;;24.60;12.75;;;;;;;16.52;76.15;96105.59;5077002;28;21153;-69
2022/05/03 08:01:37;;;;;;;25.58;12.98;;;;;;;16.63;75.47;96102.25;5076862;28;20226;-68
2022/05/03 08:04:03;;;;;;;23.70;13.25;;;;;;;16.90;74.95;96093.00;5076427;28;20690;-68
2022/05/03 08:06:30;;;;;;;27.10;12.77;;;;;;;16.86;74.99;96102.47;5077551;28;20581;-68
2022/05/03 08:08:56;;;;;;;21.77;12.68;;;;;;;16.73;78.94;96100.72;5076683;28;20195;-68
2022/05/03 08:11:23;;;;;;;23.63;12.23;;;;;;;16.75;74.85;96108.47;5075452;28;20316;-68
2022/05/03 08:13:52;;;;;;;22.65;11.93;;;;;;;16.96;75.23;96097.44;5076542;28;20272;-70
2022/05/03 08:16:20;;;;;;;22.58;12.18;;;;;;;17.24;76.74;96090.59;5076396;28;20199;-70
2022/05/03 08:18:47;;;;;;;19.65;10.02;;;;;;;17.35;78.75;96103.19;5076939;28;20204;-70
2022/05/03 08:21:13;;;;;;;17.05;9.82;;;;;;;17.27;74.22;96099.00;5076242;28;20232;-70
2022/05/03 08:23:39;;;;;;;19.95;10.95;;;;;;;17.65;74.35;96106.75;5075974;28;20196;-70
2022/05/03 08:26:06;;;;;;;18.80;10.07;;;;;;;17.06;74.49;96103.09;5076261;28;20204;-71
2022/05/03 08:28:33;;;;;;;21.08;10.15;;;;;;;17.38;74.20;96098.25;5074788;28;20791;-71
2022/05/03 08:31:03;;;;;;;20.75;11.13;;;;;;;17.61;74.76;96108.25;5075896;28;20656;-71
2022/05/03 08:33:29;;;;;;;12.15;7.50;;;;;;;17.52;71.25;96105.06;5076312;28;20401;-71
2022/05/03 08:35:56;;;;;;;11.93;7.10;;;;;;;17.86;69.40;96107.13;5076268;28;20680;-70
2022/05/03 08:43:50;;;;;;;12.48;6.53;;;;;;;18.37;69.51;96110.94;5075838;28;20273;-69
2022/05/03 08:46:21;;;;;;;15.10;7.97;;;;;;;18.83;69.16;96113.72;5074544;28;20919;-69
2022/05/03 08:48:50;;;;;;;10.52;6.75;;;;;;;18.92;65.95;96109.66;5076036;28;20199;-69
2022/05/03 08:51:21;;;;;;;9.43;5.70;;;;;;;18.90;64.81;96109.88;5075614;28;20212;-69
2022/05/03 08:53:47;;;;;;;10.88;6.10;;;;;;;18.92;64.50;96113.13;5075325;28;20203;-69
2022/05/03 08:56:18;;;;;;;10.40;6.28;;;;;;;19.21;62.41;96120.28;5075394;28;20200;-69
2022/05/03 08:58:44;;;;;;;12.15;5.57;;;;;;;19.05;67.20;96119.06;5076698;28;20196;-69
2022/05/03 09:01:11;;;;;;;11.52;6.88;;;;;;;19.32;65.59;96109.56;5075586;28;20715;-69
2022/05/03 09:03:39;;;;;;;8.93;5.57;;;;;;;19.22;63.10;96117.34;5074867;28;20284;-69
2022/05/03 09:06:06;;;;;;;10.93;6.47;;;;;;;19.05;65.21;96108.38;5076669;28;20630;-69
2022/05/03 09:08:33;;;;;;;9.57;5.30;;;;;;;19.23;61.57;96102.13;5075642;28;21111;-69
2022/05/03 09:11:00;;;;;;;7.13;4.60;;;;;;;18.99;60.60;96113.81;5076496;28;20574;-69
2022/05/03 09:13:29;;;;;;;6.57;4.22;;;;;;;18.97;61.69;96107.91;5075522;28;20244;-69
2022/05/03 09:15:57;;;;;;;9.90;5.18;;;;;;;19.04;63.15;96108.59;5079638;28;20214;-71
2022/05/03 09:18:26;;;;;;;7.50;4.85;;;;;;;19.19;58.96;96109.78;5079355;28;20207;-71
2022/05/03 09:23:48;;;;;;;8.38;5.03;;;;;;;19.52;60.50;96106.53;5079550;28;20222;-69
2022/05/03 09:26:17;;;;;;;7.95;4.80;;;;;;;18.84;60.45;96104.63;5080484;28;20206;-69
2022/05/03 09:28:45;;;;;;;7.82;5.18;;;;;;;19.39;60.25;96107.59;5076441;28;20211;-68
2022/05/03 09:31:12;;;;;;;9.77;6.18;;;;;;;19.54;59.71;96099.91;5079489;28;20283;-69
2022/05/03 09:33:39;;;;;;;10.13;6.20;;;;;;;19.62;63.57;96103.00;5079046;28;20211;-69
2022/05/03 09:36:10;;;;;;;12.45;6.57;;;;;;;20.29;64.64;96110.28;5081062;28;20204;-69
2022/05/03 09:38:46;;;;;;;12.68;5.53;;;;;;;20.43;61.31;96106.22;5078962;28;21100;-69
2022/05/03 09:41:15;;;;;;;9.23;5.57;;;;;;;20.48;58.37;96109.00;5079335;28;20254;-69
2022/05/03 09:44:03;;;;;;;8.60;4.88;;;;;;;20.74;57.75;96103.88;5078626;28;20200;-69
2022/05/03 09:46:30;;;;;;;7.03;4.53;;;;;;;20.13;58.63;96094.97;5078687;28;20249;-69
2022/05/03 09:48:57;;;;;;;7.93;4.43;;;;;;;20.63;56.65;96099.34;5078796;28;20212;-69
2022/05/03 09:51:24;;;;;;;8.18;5.00;;;;;;;20.52;59.47;96107.47;5078468;28;20595;-69
2022/05/03 09:53:58;;;;;;;10.70;6.13;;;;;;;20.92;56.80;96096.41;5078778;28;20200;-68
2022/05/03 09:56:26;;;;;;;11.93;5.60;;;;;;;20.53;57.95;96101.88;5078344;28;20390;-69
2022/05/03 09:58:57;;;;;;;10.00;6.40;;;;;;;20.74;56.97;96097.72;5076790;28;20200;-68
2022/05/03 10:01:25;;;;;;;13.73;6.50;;;;;;;20.74;56.16;96087.00;5078843;28;20280;-69
2022/05/03 10:03:52;;;;;;;8.70;5.25;;;;;;;20.62;55.62;96081.69;5077377;28;20204;-69
2022/05/03 10:06:20;;;;;;;9.52;6.13;;;;;;;20.65;58.51;96080.41;5078151;28;20199;-71
2022/05/03 10:08:49;;;;;;;9.93;5.65;;;;;;;20.91;58.89;96073.38;5080125;28;20207;-71
2022/05/03 10:11:16;;;;;;;11.18;6.57;;;;;;;20.92;56.37;96084.88;5079418;28;20786;-71
2022/05/03 10:13:43;;;;;;;12.07;6.55;;;;;;;20.70;56.91;96080.50;5078215;28;20202;-71
2022/05/03 10:21:49;;;;;;;9.55;5.85;;;;;;;20.48;55.25;96077.69;5079425;28;21007;-69
2022/05/03 10:24:18;;;;;;;9.50;5.50;;;;;;;20.53;56.47;96074.28;5078657;28;20691;-69
2022/05/03 10:26:58;;;;;;;7.85;5.15;;;;;;;21.36;57.99;96060.63;5078624;28;20196;-69
2022/05/03 10:29:26;;;;;;;8.02;5.40;;;;;;;21.12;55.46;96064.56;5078996;28;20576;-69
2022/05/03 10:31:55;;;;;;;10.35;5.25;;;;;;;21.40;54.87;96055.56;5079287;28;20291;-69
2022/05/03 10:34:44;;;;;;;8.50;4.70;;;;;;;21.59;52.78;96061.25;5075350;28;20207;-69
2022/05/03 10:37:12;;;;;;;7.72;4.82;;;;;;;21.35;53.68;96060.88;5078333;28;20210;-69
2022/05/03 10:39:51;;;;;;;12.23;5.25;;;;;;;21.65;54.20;96059.41;5077672;28;20994;-70
2022/05/03 10:42:22;;;;;;;9.10;5.00;;;;;;;21.61;54.25;96047.56;5077616;28;20251;-69
2022/05/03 10:44:58;;;;;;;9.65;5.03;;;;;;;22.38;53.44;96044.47;5077569;28;20207;-69
2022/05/03 10:47:44;;;;;;;11.32;5.88;;;;;;;22.21;51.86;96051.75;5078400;28;20200;-69
2022/05/03 10:50:23;;;;;;;8.52;5.07;;;;;;;22.47;51.46;96041.03;5077270;28;20235;-69
2022/05/03 10:53:28;;;;;;;6.85;4.22;;;;;;;22.68;51.22;96051.72;5076926;28;20307;-70
2022/05/03 10:56:23;;;;;;;9.13;5.07;;;;;;;22.10;49.62;96048.16;5077191;28;20218;-69
2022/05/03 10:59:12;;;;;;;11.30;4.35;;;;;;;22.30;50.82;96043.03;5074148;28;20291;-70
2022/05/03 11:02:07;;;;;;;9.25;4.90;;;;;;;22.68;46.93;96042.81;5075205;28;20219;-69
2022/05/03 11:04:36;;;;;;;7.03;4.50;;;;;;;21.34;47.86;96043.97;5074483;28;20211;-70
2022/05/03 11:07:03;;;;;;;7.15;4.03;;;;;;;22.07;47.92;96035.25;5076571;28;20232;-69
2022/05/03 11:09:31;;;;;;;7.13;4.40;;;;;;;21.83;50.62;96035.78;5075920;28;20306;-70
2022/05/03 11:12:05;;;;;;;7.82;4.78;;;;;;;21.75;54.54;96032.72;5076999;28;20215;-69
2022/05/03 11:14:54;;;;;;;9.18;4.65;;;;;;;22.40;51.22;96020.81;5075220;28;20210;-69
2022/05/03 11:17:21;;;;;;;10.18;4.25;;;;;;;22.05;50.74;96032.00;5075656;28;20207;-69
2022/05/03 11:19:56;;;;;;;7.15;4.28;;;;;;;22.69;49.92;96026.47;5071636;28;20672;-69
2022/05/03 11:22:24;;;;;;;7.47;4.35;;;;;;;22.95;47.61;96016.69;5076095;28;20636;-69
2022/05/03 11:24:53;;;;;;;10.57;5.40;;;;;;;22.81;48.77;96021.72;5076908;28;20200;-69
2022/05/03 11:27:22;;;;;;;9.27;5.68;;;;;;;22.65;49.78;96019.16;5075798;28;20199;-69
2022/05/03 11:29:51;;;;;;;7.40;5.22;;;;;;;22.77;51.72;96012.56;5076591;28;20275;-69
2022/05/03 11:32:29;;;;;;;12.13;5.90;;;;;;;23.28;48.39;96005.66;5075377;28;20667;-69
2022/05/03 11:35:08;;;;;;;11.00;6.03;;;;;;;22.87;48.24;96011.81;5076628;28;20223;-69
2022/05/03 11:37:35;;;;;;;13.10;5.70;;;;;;;22.19;51.84;96014.44;5074939;28;20210;-69
2022/05/03 11:40:08;;;;;;;8.00;5.10;;;;;;;23.10;48.45;96006.88;5075277;28;20230;-69
2022/05/03 11:42:41;;;;;;;8.90;5.78;;;;;;;22.78;49.36;96014.19;5075583;28;20224;-69
2022/05/03 11:45:09;;;;;;;6.63;4.75;;;;;;;23.37;49.83;96008.41;5076168;28;20680;-69
2022/05/03 11:47:38;;;;;;;7.53;4.72;;;;;;;23.29;48.92;95999.22;5075920;28;20199;-69
2022/05/03 11:50:05;;;;;;;6.80;3.72;;;;;;;23.61;45.16;96004.22;5076069;28;20325;-69
2022/05/03 11:58:02;;;;;;;7.07;4.47;;;;;;;23.96;46.48;96004.34;5076085;28;20223;-69
2022/05/03 12:00:28;;;;;;;6.15;4.20;;;;;;;24.07;46.19;96000.59;5075383;28;20747;-69
2022/05/03 12:03:01;;;;;;;6.65;4.55;;;;;;;24.17;45.20;95997.94;5075138;28;20314;-69
2022/05/03 12:05:28;;;;;;;9.02;4.90;;;;;;;23.31;47.60;95993.31;5076434;28;20225;-70
2022/05/03 12:08:01;;;;;;;6.35;4.20;;;;;;;23.58;50.63;95996.66;5074949;28;20676;-69
2022/05/03 12:10:29;;;;;;;7.70;4.72;;;;;;;23.71;44.93;95990.00;5075366;28;20243;-70
2022/05/03 12:13:09;;;;;;;7.95;4.30;;;;;;;24.26;44.63;95990.94;5074028;28;20605;-70